Vitoria, Brazil

7:14 PM -03 on March 22, 2017 (GMT -0300)
Goiabeiras | | Change Station

Elev 13 ft 20.27 °S, 40.28 °W | Updated 14 minutes ago

Clear
Clear
79 °F
Feels Like 79 °F
N
13
Wind Variable Wind from SSW

Today
High -- | Low -- °F
--% Chance of Precip.
Yesterday
High -- | Low -- °F
Precip. -- in
Pressure 30.06 in
Visibility -9999.0 miles
Clouds
Dew Point 70 °F
Humidity 74%
Rainfall 0.00 in
Snow Depth Not available.
5:45 AM 5:49 PM
Waning Crescent, 29% visible
METAR SBVT 222200Z 20011KT CAVOK 26/21 Q1018
Pressure 30.06 in
Visibility -9999.0 miles
Clouds
Dew Point 70 °F
Humidity 74%
Rainfall 0.00 in
Snow Depth Not available.
5:45 AM 5:49 PM
Waning Crescent, 29% visible
METAR SBVT 222200Z 20011KT CAVOK 26/21 Q1018

Get Severe Weather Alerts

Thanks for signing up!

Be on the lookout for a verification email in your inbox.

You'll start receiving the daily forecast at 8 AM.

×

10-Day Weather Forecast

No radar image for this location.
×

Almanac

Astronomy

Mar. 22, 2017 Rise Set
Actual Time
Civil Twilight
Nautical Twilight
Astronomical Twilight
Moon
Length of Visible Light
Length of Day
Tomorrow will be .
, % of the Moon is Illuminated

Today's Extremes

Country Highs Country Lows

Community

WunderPhotos

Upload Photos

1,962,540 photos uploaded!

WunderBlog® & News

Nearby

Air Quality

  Air Quality AQ Index Pollutant
Not available.

Snow Depth

Station Depth Elevation

Earthquake Activity

City Distance Mag. Time & Date
Minimum magnitude displayed is 2.5.

Earthquake Activity

City Distance Mag. Time & Date
Minimum magnitude displayed is 2.5.

Coastal Water Temperatures

Place Temperature

Stations

Nearby Weather Stations

Station Location Temp. Windchill Dew Point Humidity Wind Precip. Elev Updated Type